createdAt,value
2018-11-20T14:14:40.031Z,22.47
2018-11-20T14:17:43.929Z,22.31
2018-11-20T14:20:49.413Z,22.31
2018-11-20T14:23:39.450Z,22.40
2018-11-20T14:26:25.465Z,22.34
2018-11-20T14:29:03.883Z,22.41
2018-11-20T14:31:50.491Z,22.46
2018-11-20T14:34:29.440Z,22.56
2018-11-20T14:37:14.658Z,22.70
2018-11-20T14:40:07.619Z,22.68
2018-11-20T14:43:12.580Z,22.69
2018-11-20T14:46:02.502Z,22.65
2018-11-20T14:48:41.722Z,22.59
2018-11-20T14:51:31.247Z,22.59
2018-11-20T14:54:16.998Z,22.55
2018-11-20T14:57:00.914Z,22.48
2018-11-20T14:59:45.243Z,22.50
2018-11-20T15:02:37.968Z,22.47
2018-11-20T15:05:34.697Z,22.49
2018-11-20T15:30:19.967Z,22.30
2018-11-20T15:36:30.046Z,22.36
2018-11-20T15:45:35.239Z,22.31
2018-11-20T15:55:27.882Z,22.05
2018-11-20T16:00:36.941Z,22.11
2018-11-20T16:06:33.561Z,22.10
2018-11-20T16:09:21.247Z,21.99
2018-11-20T16:12:09.738Z,21.99
2018-11-20T16:14:57.450Z,22.07
2018-11-20T16:17:44.600Z,22.08
2018-11-20T16:37:16.747Z,21.93
2018-11-20T16:46:04.493Z,22.02
2018-11-20T16:48:39.450Z,21.86
2018-11-20T16:56:53.676Z,21.90
2018-11-20T16:59:58.615Z,21.92
2018-11-20T17:02:43.763Z,21.91
2018-11-20T17:05:29.242Z,21.83
2018-11-20T17:08:18.661Z,21.82
2018-11-20T17:11:11.767Z,21.92
2018-11-20T17:14:07.794Z,21.91
2018-11-20T17:16:51.272Z,21.83
2018-11-20T17:19:32.240Z,21.77
2018-11-20T17:22:19.245Z,21.81
2018-11-20T17:25:12.963Z,21.89
2018-11-20T17:27:49.748Z,21.87
2018-11-20T17:30:38.379Z,21.80
2018-11-20T17:33:40.648Z,21.81
2018-11-20T17:36:26.367Z,21.79
2018-11-20T17:39:24.964Z,21.87
2018-11-20T17:42:11.055Z,21.78
2018-11-20T17:44:57.649Z,21.78
2018-11-20T17:47:43.739Z,21.80
2018-11-20T17:50:42.779Z,21.85
2018-11-20T17:53:28.533Z,21.85
2018-11-20T17:56:22.526Z,21.75
2018-11-20T17:59:08.529Z,21.73
2018-11-20T18:02:07.245Z,21.27
2018-11-20T18:05:00.050Z,21.79
2018-11-20T18:07:56.015Z,21.62
2018-11-20T18:10:29.334Z,21.62
2018-11-20T18:13:16.484Z,21.64
2018-11-20T18:16:18.538Z,21.73
2018-11-20T18:19:04.363Z,21.78
2018-11-20T18:21:51.385Z,21.73
2018-11-20T18:24:56.663Z,21.64
2018-11-20T18:27:45.002Z,21.68
2018-11-20T18:30:41.393Z,21.80
2018-11-20T18:33:27.253Z,21.70
2018-11-20T18:36:04.622Z,21.61
2018-11-20T18:38:50.320Z,21.61
2018-11-20T18:41:36.439Z,21.63
2018-11-20T18:44:26.692Z,21.74
2018-11-20T18:47:26.394Z,21.75
2018-11-20T18:50:12.432Z,21.58
2018-11-20T18:53:17.676Z,21.81
2018-11-20T18:56:04.641Z,21.71
2018-11-20T18:58:54.705Z,21.79
2018-11-20T19:01:35.860Z,21.92
2018-11-20T19:04:28.532Z,21.84
2018-11-20T19:07:34.062Z,21.91
2018-11-20T19:10:25.506Z,21.91
2018-11-20T19:13:23.952Z,22.01
2018-11-20T19:16:28.070Z,21.86
2018-11-20T19:19:13.965Z,21.79
2018-11-20T19:22:03.639Z,21.86
2018-11-20T19:24:49.323Z,21.81
2018-11-20T19:27:48.466Z,21.81
2018-11-20T19:30:53.338Z,21.67
2018-11-20T19:33:38.887Z,21.75
2018-11-20T19:36:40.354Z,21.74
2018-11-20T19:39:33.606Z,21.69
2018-11-20T19:42:20.966Z,21.67
2018-11-20T19:45:07.920Z,21.75
2018-11-20T19:47:53.125Z,21.70
2018-11-20T19:50:40.467Z,21.71
2018-11-20T19:53:20.676Z,21.60
2018-11-20T19:56:23.341Z,21.65
2018-11-20T19:59:25.562Z,21.63
2018-11-20T20:02:11.432Z,21.68
2018-11-20T20:05:13.568Z,21.56
2018-11-20T20:07:59.697Z,21.61
2018-11-20T20:10:45.530Z,21.66
2018-11-20T20:13:25.251Z,21.66
2018-11-20T20:16:03.245Z,21.63
2018-11-20T20:18:49.425Z,21.55
2018-11-20T20:21:45.371Z,21.59
2018-11-20T20:24:47.652Z,21.61
2018-11-20T20:27:33.766Z,21.75
2018-11-20T20:30:19.654Z,21.58
2018-11-20T20:33:06.599Z,21.55
2018-11-20T20:35:51.874Z,21.59
2018-11-20T20:38:27.946Z,21.63
2018-11-20T20:41:17.976Z,21.71
2018-11-20T20:44:03.645Z,21.64
2018-11-20T20:46:53.962Z,21.52
2018-11-20T20:49:27.672Z,21.40
2018-11-20T22:52:58.622Z,21.36
2018-11-20T22:58:45.472Z,21.39
2018-11-20T23:01:31.434Z,21.34
2018-11-20T23:04:20.492Z,21.31
